createdAt,value
2018-02-15T06:02:22.086Z,80.90
2018-02-15T06:04:49.607Z,81.50
2018-02-15T06:07:17.126Z,81.10
2018-02-15T06:09:44.613Z,81.10
2018-02-15T06:12:12.136Z,81.50
2018-02-15T06:14:39.652Z,81.50
2018-02-15T06:17:07.188Z,81.70
2018-02-15T06:19:34.713Z,80.50
2018-02-15T06:22:02.990Z,80.30
2018-02-15T06:24:30.503Z,80.30
2018-02-15T06:26:58.028Z,80.50
2018-02-15T06:29:29.856Z,80.60
2018-02-15T06:32:04.156Z,80.30
2018-02-15T06:34:31.658Z,80.20
2018-02-15T06:36:59.206Z,79.60
2018-02-15T06:39:27.001Z,80.10
2018-02-15T06:41:54.499Z,80.00
2018-02-15T06:44:22.754Z,78.90
2018-02-15T06:46:51.073Z,78.90
2018-02-15T06:49:19.363Z,79.10
2018-02-15T06:51:46.887Z,79.20
2018-02-15T06:54:14.403Z,78.80
2018-02-15T06:56:41.893Z,78.30
2018-02-15T06:59:09.412Z,78.20
2018-02-15T07:01:36.938Z,78.50
2018-02-15T07:04:06.318Z,77.30
2018-02-15T07:06:33.825Z,76.50
2018-02-15T07:09:01.325Z,76.50
2018-02-15T07:11:28.836Z,76.10
2018-02-15T07:13:56.339Z,76.60
2018-02-15T07:16:24.773Z,75.40
2018-02-15T07:18:52.265Z,74.80
2018-02-15T07:21:19.823Z,74.80
2018-02-15T07:23:48.189Z,74.20
2018-02-15T07:26:15.718Z,74.80
2018-02-15T07:28:44.174Z,74.50
2018-02-15T07:31:15.226Z,75.00
2018-02-15T07:33:43.493Z,74.90
2018-02-15T07:36:11.027Z,74.80
2018-02-15T07:38:38.519Z,74.80
2018-02-15T07:41:06.323Z,74.80
2018-02-15T07:43:39.208Z,75.20
2018-02-15T07:48:58.109Z,74.70
2018-02-15T07:51:25.724Z,76.40
2018-02-15T07:53:54.504Z,76.40
2018-02-15T07:56:22.010Z,75.40
2018-02-15T07:58:50.079Z,75.30
2018-02-15T08:01:18.733Z,74.90
2018-02-15T08:03:47.048Z,74.00
2018-02-15T08:06:15.688Z,72.70
2018-02-15T08:08:43.181Z,72.80
2018-02-15T08:11:11.901Z,72.30
2018-02-15T08:13:39.499Z,73.00
2018-02-15T08:16:07.789Z,73.10
2018-02-15T08:18:35.282Z,73.10
2018-02-15T08:21:03.032Z,72.70
2018-02-15T08:23:31.538Z,72.20
2018-02-15T08:25:59.051Z,72.20
2018-02-15T08:28:32.413Z,71.70
2018-02-15T08:30:59.909Z,71.50
2018-02-15T08:33:30.506Z,70.60
2018-02-15T08:36:00.544Z,71.30
2018-02-15T08:38:33.319Z,71.50
2018-02-15T08:41:03.454Z,71.00
2018-02-15T08:43:32.522Z,71.60
2018-02-15T08:46:01.840Z,72.00
2018-02-15T08:48:32.504Z,73.00
2018-02-15T08:51:04.300Z,71.30
2018-02-15T08:53:32.579Z,69.70
2018-02-15T08:56:00.978Z,68.00
2018-02-15T08:58:28.512Z,68.00
2018-02-15T09:00:56.918Z,65.60
2018-02-15T09:03:24.426Z,65.50
2018-02-15T09:05:51.930Z,65.70
2018-02-15T09:08:20.309Z,65.90
2018-02-15T09:10:47.896Z,64.30
2018-02-15T09:13:24.511Z,63.60
2018-02-15T09:15:52.830Z,63.60
2018-02-15T09:18:39.536Z,63.50
2018-02-15T09:21:07.084Z,63.30
2018-02-15T09:23:35.463Z,62.60
2018-02-15T09:26:03.455Z,62.80
2018-02-15T09:28:31.221Z,62.30
2018-02-15T09:30:58.726Z,60.60
2018-02-15T09:33:26.262Z,59.80
2018-02-15T09:35:53.786Z,58.80
2018-02-15T09:38:21.283Z,59.30
2018-02-15T09:40:48.798Z,57.90
2018-02-15T09:43:16.327Z,57.20
2018-02-15T09:45:44.705Z,56.50
2018-02-15T09:48:12.500Z,56.50
2018-02-15T09:50:41.218Z,55.30
2018-02-15T09:53:08.773Z,55.30
2018-02-15T09:55:36.262Z,55.50
2018-02-15T10:00:51.150Z,56.80
2018-02-15T10:03:19.420Z,54.80
2018-02-15T10:05:46.944Z,54.80
2018-02-15T10:08:14.497Z,54.20
2018-02-15T10:10:41.995Z,53.10
2018-02-15T10:13:09.527Z,53.10
2018-02-15T10:15:37.161Z,52.90
2018-02-15T10:18:04.821Z,51.60
2018-02-15T10:20:32.343Z,51.50
2018-02-15T10:23:00.626Z,50.00
2018-02-15T10:25:28.570Z,50.50
2018-02-15T10:27:57.020Z,49.90
2018-02-15T10:30:25.723Z,48.60
2018-02-15T10:32:53.289Z,48.00
2018-02-15T10:35:20.803Z,49.40
2018-02-15T10:37:50.692Z,48.00
2018-02-15T10:40:19.072Z,50.40
2018-02-15T10:42:48.292Z,49.90
2018-02-15T10:45:16.708Z,49.80
2018-02-15T10:47:46.031Z,49.90
2018-02-15T10:50:14.349Z,52.00
2018-02-15T10:52:41.865Z,52.00
2018-02-15T10:55:10.266Z,49.50
2018-02-15T10:57:37.843Z,49.30
2018-02-15T11:02:38.050Z,48.60
2018-02-15T11:05:11.902Z,48.60
2018-02-15T11:07:39.429Z,48.50
2018-02-15T11:10:06.972Z,46.90
2018-02-15T11:12:34.514Z,47.80
2018-02-15T11:15:02.003Z,48.00
2018-02-15T11:17:29.555Z,47.60
2018-02-15T11:19:57.802Z,48.40
2018-02-15T11:22:25.574Z,48.40
2018-02-15T11:24:53.065Z,49.20
2018-02-15T11:27:21.114Z,48.90
2018-02-15T11:29:48.643Z,48.00
2018-02-15T11:32:16.121Z,48.10
2018-02-15T11:34:43.821Z,47.80
2018-02-15T11:37:11.339Z,48.30
2018-02-15T11:39:38.873Z,48.90
2018-02-15T11:42:06.424Z,48.50
2018-02-15T11:44:33.961Z,47.50
2018-02-15T11:47:01.787Z,48.20
2018-02-15T11:49:30.164Z,48.30
2018-02-15T11:51:57.667Z,48.30
2018-02-15T11:54:25.308Z,49.50
2018-02-15T11:56:52.808Z,48.80
2018-02-15T11:59:20.291Z,49.20
2018-02-15T12:01:51.470Z,48.30
2018-02-15T12:04:22.862Z,48.20
2018-02-15T12:06:53.966Z,46.80
2018-02-15T12:09:21.457Z,47.30
2018-02-15T12:11:49.779Z,47.60
2018-02-15T12:14:17.476Z,47.20
2018-02-15T12:16:44.989Z,48.00
2018-02-15T12:19:13.618Z,48.10
2018-02-15T12:21:41.147Z,48.10
2018-02-15T12:24:09.868Z,48.30
2018-02-15T12:26:37.633Z,49.50
2018-02-15T12:29:06.192Z,50.30
2018-02-15T12:31:36.128Z,49.70
2018-02-15T12:34:03.695Z,50.70
2018-02-15T12:36:31.359Z,50.40
2018-02-15T12:39:02.723Z,51.00
2018-02-15T12:41:30.297Z,51.40
2018-02-15T12:43:58.021Z,50.90
2018-02-15T12:46:25.517Z,51.10
2018-02-15T12:48:54.767Z,51.40
2018-02-15T12:51:25.875Z,51.70
2018-02-15T12:53:55.321Z,51.90
2018-02-15T12:56:32.401Z,52.50
2018-02-15T12:59:21.618Z,52.40
2018-02-15T13:01:49.825Z,51.70
2018-02-15T13:38:03.679Z,50.10
2018-02-15T13:40:31.190Z,49.90
2018-02-15T13:42:58.741Z,51.00
2018-02-15T13:45:26.280Z,50.90
2018-02-15T13:47:54.175Z,51.40
2018-02-15T13:50:21.835Z,50.90
2018-02-15T13:52:49.504Z,50.40
2018-02-15T13:55:17.452Z,50.00
2018-02-15T13:57:45.102Z,50.80
2018-02-15T14:00:12.659Z,49.60
2018-02-15T14:02:40.210Z,49.50
2018-02-15T14:05:07.877Z,50.00
2018-02-15T14:07:35.551Z,49.30
2018-02-15T14:10:03.072Z,50.40
2018-02-15T14:12:30.667Z,50.40
2018-02-15T14:14:58.170Z,50.10
2018-02-15T14:17:27.668Z,49.90
2018-02-15T14:19:55.740Z,50.00
2018-02-15T14:27:58.821Z,48.20
2018-02-15T14:30:26.340Z,48.30
2018-02-15T14:32:54.586Z,50.30
2018-02-15T14:35:22.129Z,50.20
2018-02-15T14:37:49.640Z,52.10
2018-02-15T14:40:17.931Z,55.00
2018-02-15T14:42:45.418Z,55.00
2018-02-15T14:45:12.959Z,56.70
2018-02-15T14:47:40.455Z,58.10
2018-02-15T14:50:08.201Z,62.10
2018-02-15T14:52:35.863Z,66.10
2018-02-15T14:55:03.725Z,68.90
2018-02-15T14:57:31.260Z,71.70
2018-02-15T14:59:58.879Z,73.60
2018-02-15T15:02:26.579Z,76.20
2018-02-15T15:04:54.144Z,77.20
2018-02-15T15:07:21.791Z,78.20
2018-02-15T15:09:50.386Z,80.00
2018-02-15T15:12:17.911Z,79.90
2018-02-15T15:14:46.926Z,82.10
2018-02-15T15:17:14.734Z,82.00
2018-02-15T15:19:42.233Z,82.50
2018-02-15T15:22:10.597Z,83.50
2018-02-15T15:24:38.127Z,83.50
2018-02-15T15:27:05.889Z,84.40
2018-02-15T15:29:33.907Z,83.70
2018-02-15T15:32:01.369Z,84.20
2018-02-15T15:34:28.882Z,84.40
2018-02-15T15:36:56.390Z,84.30
2018-02-15T15:39:24.085Z,85.10
2018-02-15T15:41:51.726Z,85.50
2018-02-15T15:44:19.417Z,85.40
2018-02-15T15:46:46.929Z,85.90
2018-02-15T15:49:15.197Z,87.00
2018-02-15T15:51:42.729Z,87.00
2018-02-15T15:54:10.308Z,86.50
2018-02-15T15:56:38.133Z,86.10
2018-02-15T15:59:05.675Z,86.70
2018-02-15T16:01:33.666Z,86.50
2018-02-15T16:04:01.173Z,86.10
2018-02-15T16:06:29.138Z,86.20
2018-02-15T16:08:56.706Z,86.80
2018-02-15T16:11:24.970Z,88.40
2018-02-15T16:13:53.290Z,88.40
2018-02-15T16:16:20.796Z,88.40
2018-02-15T16:18:48.368Z,88.50
2018-02-15T16:21:16.651Z,88.80
2018-02-15T16:23:45.050Z,88.90
2018-02-15T16:26:13.560Z,88.90
2018-02-15T16:28:41.325Z,89.30
2018-02-15T16:31:08.851Z,89.30
2018-02-15T16:33:37.147Z,89.70
2018-02-15T16:36:04.745Z,89.60
2018-02-15T16:38:32.431Z,90.00
2018-02-15T16:41:00.036Z,90.00
2018-02-15T16:43:27.581Z,90.40
2018-02-15T16:45:55.116Z,90.10
2018-02-15T16:48:22.762Z,90.10
2018-02-15T16:50:50.459Z,90.20
2018-02-15T16:53:18.135Z,90.30
2018-02-15T16:55:45.642Z,90.70
2018-02-15T16:58:13.212Z,90.50
2018-02-15T17:00:41.482Z,90.90
2018-02-15T17:03:10.708Z,90.60
2018-02-15T17:05:39.210Z,90.70
2018-02-15T17:08:06.733Z,90.70
2018-02-15T17:10:34.256Z,90.70
2018-02-15T17:13:01.814Z,90.70
2018-02-15T17:15:29.305Z,91.00
2018-02-15T17:17:57.005Z,91.00
2018-02-15T17:20:24.533Z,91.10
2018-02-15T17:22:52.136Z,91.10
2018-02-15T17:25:19.865Z,91.00
2018-02-15T17:27:47.380Z,91.10
2018-02-15T17:30:15.101Z,91.40
2018-02-15T17:32:42.604Z,91.20
2018-02-15T17:35:10.120Z,91.10
2018-02-15T17:37:37.712Z,91.00
2018-02-15T17:40:05.239Z,91.00
2018-02-15T17:42:32.819Z,90.90
2018-02-15T17:45:00.357Z,90.80
2018-02-15T17:47:29.319Z,90.90
2018-02-15T17:49:57.091Z,91.00
2018-02-15T17:52:25.486Z,90.80
2018-02-15T17:54:53.859Z,90.80
2018-02-15T17:57:21.487Z,90.80
2018-02-15T17:59:49.758Z,91.00
2018-02-15T18:02:18.054Z,91.10
2018-02-15T18:04:45.585Z,91.10
2018-02-15T18:07:13.267Z,91.10
2018-02-15T18:09:41.660Z,91.20
2018-02-15T18:12:09.779Z,91.10
2018-02-15T18:14:37.299Z,91.00
2018-02-15T18:17:04.820Z,91.10
2018-02-15T18:19:32.583Z,91.20
2018-02-15T18:22:00.085Z,91.20
2018-02-15T18:24:27.619Z,91.20
2018-02-15T18:26:56.123Z,91.20
2018-02-15T18:29:23.613Z,91.20
2018-02-15T18:31:51.974Z,91.30
2018-02-15T18:34:19.455Z,91.20
2018-02-15T18:36:47.748Z,91.20
2018-02-15T18:39:15.250Z,91.20
2018-02-15T18:41:42.783Z,91.30
2018-02-15T18:44:11.059Z,91.30
2018-02-15T18:46:39.364Z,91.40
2018-02-15T18:49:06.899Z,91.40
2018-02-15T18:51:35.189Z,91.70
2018-02-15T18:54:02.726Z,91.60
2018-02-15T18:56:30.239Z,91.50
2018-02-15T18:58:57.782Z,91.70
2018-02-15T19:01:26.179Z,91.70
2018-02-15T19:03:53.733Z,91.70
2018-02-15T19:06:21.461Z,91.90
2018-02-15T19:08:49.774Z,91.80
2018-02-15T19:11:17.278Z,91.90
2018-02-15T19:13:44.899Z,91.80
2018-02-15T19:16:12.459Z,91.90
2018-02-15T19:18:39.972Z,92.00
2018-02-15T19:21:07.507Z,92.00
2018-02-15T19:23:35.012Z,92.10
2018-02-15T19:26:02.566Z,92.10
2018-02-15T19:28:30.234Z,92.10
2018-02-15T19:30:57.754Z,92.10
2018-02-15T19:33:26.150Z,92.30
2018-02-15T19:35:53.658Z,92.30
2018-02-15T19:38:21.171Z,92.10
2018-02-15T19:40:48.750Z,92.10
2018-02-15T19:43:16.294Z,92.10
2018-02-15T19:45:44.613Z,92.00
2018-02-15T19:48:12.115Z,92.00
2018-02-15T19:50:39.647Z,92.00
2018-02-15T19:53:07.927Z,92.30
2018-02-15T19:55:36.364Z,92.20
2018-02-15T19:58:03.886Z,92.20
2018-02-15T20:00:31.407Z,92.20
2018-02-15T20:02:58.918Z,92.20
2018-02-15T20:05:26.415Z,92.30
2018-02-15T20:07:53.948Z,92.30
2018-02-15T20:10:22.242Z,92.20
2018-02-15T20:12:49.792Z,92.20
2018-02-15T20:15:17.311Z,92.20
2018-02-15T20:17:44.849Z,92.20
2018-02-15T20:20:18.693Z,92.80
2018-02-15T20:22:46.206Z,92.40
2018-02-15T20:25:13.888Z,92.50
2018-02-15T20:27:46.991Z,92.60
2018-02-15T20:30:14.494Z,92.50
2018-02-15T20:32:42.010Z,92.60
2018-02-15T20:35:09.563Z,92.70
2018-02-15T20:37:42.595Z,92.60
2018-02-15T20:40:15.788Z,92.50
2018-02-15T20:42:43.291Z,92.60
2018-02-15T20:45:10.809Z,92.60
2018-02-15T20:47:38.440Z,92.70
2018-02-15T20:50:11.700Z,92.70
2018-02-15T20:52:44.892Z,92.80
2018-02-15T20:55:18.150Z,92.80
2018-02-15T20:57:45.668Z,92.80
2018-02-15T21:00:13.204Z,92.80
2018-02-15T21:02:40.746Z,92.80
2018-02-15T21:05:09.075Z,92.90
2018-02-15T21:07:36.554Z,92.90
2018-02-15T21:10:04.054Z,92.80
2018-02-15T21:12:31.586Z,92.70
2018-02-15T21:14:59.089Z,92.80
2018-02-15T21:17:26.686Z,92.90
2018-02-15T21:19:54.452Z,92.70
2018-02-15T21:22:22.742Z,92.80
2018-02-15T21:24:50.245Z,92.80
2018-02-15T21:27:19.095Z,92.80
2018-02-15T21:29:48.081Z,92.90
2018-02-15T21:32:15.607Z,92.90
2018-02-15T21:34:43.208Z,92.90
2018-02-15T21:37:11.455Z,92.80
2018-02-15T21:39:39.075Z,92.80
2018-02-15T21:42:06.633Z,92.80
2018-02-15T21:44:34.138Z,92.70
2018-02-15T21:47:01.647Z,92.70
2018-02-15T21:49:29.191Z,92.80
2018-02-15T21:51:56.751Z,92.70
2018-02-15T21:54:24.322Z,92.70
2018-02-15T21:56:58.679Z,92.80
2018-02-15T21:59:34.879Z,92.70
2018-02-15T22:02:02.430Z,92.70
